Time;durP1;ratioP1;P1;durP2;ratioP2;P2;SDS_P1;SDS_P2;PMS_P1;PMS_P2;Temp;Humidity;BMP_temperature;BMP_pressure;BME280_temperature;BME280_humidity;BME280_pressure;Samples;Min_cycle;Max_cycle;Signal;HPM_P1;HPM_P2
2022/01/11 00:00:38;;;;;;;16.17;7.37;;;;;;;3.07;48.15;101031.84;5423205;32;33942;-69
2022/01/11 00:03:41;;;;;;;19.07;7.63;;;;;;;2.85;49.19;101033.53;5444545;32;34830;-70
2022/01/11 00:06:47;;;;;;;20.30;8.15;;;;;;;2.46;49.63;101029.06;5440233;32;34153;-70
2022/01/11 00:09:51;;;;;;;19.57;8.57;;;;;;;3.09;48.30;101028.41;5439563;32;35870;-69
2022/01/11 00:12:57;;;;;;;;;;;;;;;2.06;50.62;101039.22;5428779;32;35150;-70
2022/01/11 00:15:59;;;;;;;18.00;7.87;;;;;;;3.09;48.32;101033.59;5442174;32;34851;-70
2022/01/11 00:19:05;;;;;;;18.50;7.93;;;;;;;2.83;48.90;101032.63;5439034;32;35078;-71
2022/01/11 00:22:16;;;;;;;17.07;7.57;;;;;;;2.62;49.54;101041.22;5429330;32;33966;-70
2022/01/11 00:25:18;;;;;;;18.10;7.80;;;;;;;2.52;49.62;101040.34;5449771;32;34778;-71
2022/01/11 00:28:22;;;;;;;19.17;8.47;;;;;;;3.26;47.72;101042.25;5438043;32;34383;-70
2022/01/11 00:31:24;;;;;;;17.83;7.93;;;;;;;1.90;50.73;101061.59;5438077;32;33979;-70
2022/01/11 00:34:36;;;;;;;16.73;7.87;;;;;;;2.15;50.90;101058.31;5437563;32;34074;-69
2022/01/11 00:37:38;;;;;;;18.23;7.73;;;;;;;2.85;48.65;101054.28;5411413;32;36029;-71
2022/01/11 00:40:41;;;;;;;17.97;7.50;;;;;;;2.95;48.35;101062.09;5436796;32;35866;-70
2022/01/11 00:43:43;;;;;;;16.87;7.50;;;;;;;2.94;48.25;101062.09;5420587;32;34890;-71
2022/01/11 00:46:46;;;;;;;16.63;6.87;;;;;;;2.81;48.71;101065.53;5441823;32;34604;-69
2022/01/11 00:49:50;;;;;;;18.43;7.90;;;;;;;2.77;48.49;101077.63;5447881;32;35101;-69
2022/01/11 00:52:52;;;;;;;18.47;7.80;;;;;;;2.65;48.60;101078.47;5439860;32;34342;-71
2022/01/11 00:55:55;;;;;;;18.47;7.23;;;;;;;2.05;50.59;101090.22;5446995;32;34759;-70
2022/01/11 00:58:57;;;;;;;15.40;6.70;;;;;;;2.64;48.67;101094.00;5420717;32;34637;-71
2022/01/11 01:01:59;;;;;;;16.63;7.17;;;;;;;2.78;48.25;101088.88;5425592;32;33878;-69
2022/01/11 01:05:02;;;;;;;17.83;7.07;;;;;;;2.16;50.09;101105.84;5411865;32;34031;-69
2022/01/11 01:08:05;;;;;;;16.80;7.63;;;;;;;2.57;48.82;101100.03;5437576;32;34393;-70
2022/01/11 01:11:08;;;;;;;16.30;7.03;;;;;;;2.25;49.34;101110.22;5432330;32;34942;-69
2022/01/11 01:14:11;;;;;;;18.40;7.17;;;;;;;2.82;48.15;101104.47;5443625;32;34666;-69
2022/01/11 01:17:13;;;;;;;16.47;6.90;;;;;;;2.64;48.24;101100.09;5418661;32;34300;-70
2022/01/11 01:20:15;;;;;;;19.63;7.77;;;;;;;2.10;49.90;101117.03;5444349;32;34502;-70
2022/01/11 01:23:18;;;;;;;18.33;7.23;;;;;;;3.01;47.86;101115.78;5444617;32;34900;-69
2022/01/11 01:26:20;;;;;;;16.75;7.20;;;;;;;2.78;48.22;101118.31;5418236;32;33849;-69
2022/01/11 01:29:22;;;;;;;15.87;6.73;;;;;;;2.71;48.48;101119.16;5450016;32;34571;-70
2022/01/11 01:32:25;;;;;;;17.30;6.87;;;;;;;2.05;50.29;101131.69;5434162;32;34154;-68
2022/01/11 01:35:33;;;;;;;17.93;7.33;;;;;;;2.92;47.95;101114.03;5410682;32;34772;-70
2022/01/11 01:38:36;;;;;;;16.63;7.13;;;;;;;2.26;49.12;101131.00;5434541;32;34069;-69
2022/01/11 01:41:43;;;;;;;15.90;6.80;;;;;;;2.18;49.53;101128.31;5418206;32;35015;-70
2022/01/11 01:44:48;;;;;;;16.43;6.87;;;;;;;1.93;50.01;101128.13;5424069;32;34694;-70
2022/01/11 01:47:57;;;;;;;16.27;6.40;;;;;;;1.94;49.59;101130.78;5434197;32;34378;-69
2022/01/11 01:50:59;;;;;;;18.00;7.13;;;;;;;1.94;49.97;101127.31;5420450;32;33873;-70
2022/01/11 01:54:01;;;;;;;18.90;7.30;;;;;;;1.80;50.22;101122.88;5445783;32;35258;-69
2022/01/11 01:57:04;;;;;;;15.13;6.80;;;;;;;2.15;49.30;101128.31;5417504;32;34655;-69
2022/01/11 02:00:11;;;;;;;17.27;6.13;;;;;;;2.48;48.41;101118.16;5420992;32;32702;-70
2022/01/11 02:03:15;;;;;;;15.37;6.50;;;;;;;2.69;47.60;101121.72;5432965;32;35389;-70
2022/01/11 02:06:19;;;;;;;16.27;6.62;;;;;;;1.92;48.87;101135.06;5422979;32;34544;-68
2022/01/11 02:09:21;;;;;;;15.93;6.70;;;;;;;1.72;50.07;101128.84;5405746;32;34011;-70
2022/01/11 02:12:24;;;;;;;17.00;7.10;;;;;;;2.30;48.69;101127.56;5416688;32;34526;-69
2022/01/11 02:15:27;;;;;;;15.17;5.90;;;;;;;1.68;50.07;101135.72;5435087;32;34641;-69
2022/01/11 02:18:30;;;;;;;15.20;6.50;;;;;;;2.37;48.33;101131.91;5439036;32;34012;-69
2022/01/11 02:21:32;;;;;;;18.17;6.50;;;;;;;2.41;47.73;101131.09;5445231;32;33284;-70
2022/01/11 02:24:35;;;;;;;14.47;6.47;;;;;;;2.06;48.49;101132.56;5427924;32;34482;-68
2022/01/11 02:27:37;;;;;;;14.67;6.20;;;;;;;2.59;47.18;101124.28;5417712;32;34131;-72
2022/01/11 02:30:39;;;;;;;13.10;5.40;;;;;;;2.65;46.69;101127.78;5432674;32;34897;-70
2022/01/11 02:33:45;;;;;;;16.37;6.30;;;;;;;2.37;46.73;101129.31;5432886;32;35551;-69
2022/01/11 02:36:47;;;;;;;14.53;5.57;;;;;;;2.36;47.31;101127.59;5421217;32;34687;-70
2022/01/11 02:39:49;;;;;;;14.97;6.43;;;;;;;2.61;46.92;101130.34;5431654;32;34539;-70
2022/01/11 02:42:51;;;;;;;16.20;6.83;;;;;;;2.33;47.16;101139.69;5443573;32;34168;-68
2022/01/11 02:45:54;;;;;;;15.57;6.67;;;;;;;2.27;47.64;101137.91;5435582;32;34714;-68
2022/01/11 02:48:57;;;;;;;16.10;6.60;;;;;;;2.54;47.32;101133.75;5440430;32;35496;-70
2022/01/11 02:51:59;;;;;;;16.37;6.40;;;;;;;2.21;47.99;101139.59;5438955;32;34916;-68
2022/01/11 02:55:03;;;;;;;13.77;5.43;;;;;;;2.53;46.87;101132.03;5406494;32;34469;-69
2022/01/11 02:58:06;;;;;;;13.57;5.67;;;;;;;2.57;46.99;101141.53;5440039;32;34089;-70
2022/01/11 03:01:09;;;;;;;14.50;6.03;;;;;;;2.67;46.69;101133.81;5433810;32;34721;-68
2022/01/11 03:04:12;;;;;;;14.20;6.00;;;;;;;2.48;47.05;101139.78;5443066;32;34731;-68
2022/01/11 03:07:22;;;;;;;16.40;6.40;;;;;;;1.99;48.21;101143.75;5432010;32;34336;-69
2022/01/11 03:10:33;;;;;;;14.63;6.17;;;;;;;2.25;47.76;101142.22;5422205;32;34473;-70
2022/01/11 03:13:35;;;;;;;16.53;6.17;;;;;;;2.61;46.92;101144.16;5420545;32;35497;-69
2022/01/11 03:16:37;;;;;;;14.60;5.50;;;;;;;2.45;47.50;101152.75;5432145;32;34793;-69
2022/01/11 03:19:40;;;;;;;15.10;6.37;;;;;;;2.42;47.48;101150.12;5440224;32;35545;-68
2022/01/11 03:22:42;;;;;;;16.87;5.87;;;;;;;2.25;47.63;101162.97;5406213;32;34446;-70
2022/01/11 03:25:45;;;;;;;17.60;6.37;;;;;;;1.97;48.02;101167.06;5425143;32;35184;-70
2022/01/11 03:28:47;;;;;;;18.43;6.47;;;;;;;0.85;50.75;101170.19;5419198;32;34505;-70
2022/01/11 03:31:49;;;;;;;15.87;6.37;;;;;;;1.55;49.26;101164.97;5433236;32;34698;-70
2022/01/11 03:34:51;;;;;;;15.90;6.03;;;;;;;1.65;49.35;101171.09;5422892;32;34857;-70
2022/01/11 03:37:54;;;;;;;14.63;5.50;;;;;;;2.42;46.87;101169.13;5414754;32;34056;-69
2022/01/11 03:40:56;;;;;;;13.87;5.47;;;;;;;2.22;47.49;101180.25;5413401;32;35223;-70
2022/01/11 03:43:59;;;;;;;12.90;5.27;;;;;;;2.52;46.64;101179.59;5445168;32;34010;-69
2022/01/11 03:47:02;;;;;;;14.80;6.10;;;;;;;1.88;47.95;101190.34;5440682;32;34055;-69
2022/01/11 03:50:06;;;;;;;15.98;5.97;;;;;;;2.22;47.45;101193.22;5446629;32;33893;-70
2022/01/11 03:53:12;;;;;;;14.73;6.43;;;;;;;1.77;48.57;101190.22;5438508;32;34607;-70
2022/01/11 03:56:23;;;;;;;16.07;6.03;;;;;;;1.19;50.16;101189.59;5409607;32;34777;-70
2022/01/11 03:59:25;;;;;;;15.47;6.07;;;;;;;1.27;50.09;101194.88;5418587;32;34888;-70
2022/01/11 04:02:28;;;;;;;13.80;5.73;;;;;;;1.85;48.37;101198.06;5441257;32;34505;-70
2022/01/11 04:05:30;;;;;;;13.50;5.80;;;;;;;2.12;46.92;101195.72;5434592;32;33764;-70
2022/01/11 04:08:33;;;;;;;12.87;5.63;;;;;;;1.75;47.75;101193.66;5418586;32;34086;-69
2022/01/11 04:11:36;;;;;;;12.90;5.73;;;;;;;1.21;48.66;101206.00;5414104;32;34069;-69
2022/01/11 04:14:38;;;;;;;15.67;6.13;;;;;;;1.92;46.80;101207.63;5432178;32;34537;-71
2022/01/11 04:17:40;;;;;;;13.70;5.53;;;;;;;2.21;46.56;101212.22;5438947;32;34839;-71
2022/01/11 04:20:42;;;;;;;13.63;6.00;;;;;;;1.65;47.53;101221.19;5411679;32;34056;-71
2022/01/11 04:23:45;;;;;;;14.33;5.77;;;;;;;1.97;46.95;101213.75;5439026;32;35377;-70
2022/01/11 04:26:47;;;;;;;14.60;5.63;;;;;;;2.18;46.05;101208.72;5417790;32;34713;-70
2022/01/11 04:29:49;;;;;;;15.00;6.17;;;;;;;1.45;48.18;101220.97;5435078;32;33931;-70
2022/01/11 04:32:51;;;;;;;12.60;6.00;;;;;;;1.55;47.32;101221.97;5408137;32;33872;-70
2022/01/11 04:35:54;;;;;;;13.57;5.13;;;;;;;1.56;47.73;101234.94;5414571;32;35088;-68
2022/01/11 04:38:56;;;;;;;15.73;5.70;;;;;;;1.50;48.49;101231.41;5435655;32;34003;-71
2022/01/11 04:41:58;;;;;;;16.57;6.77;;;;;;;1.69;47.53;101235.94;5432188;32;34596;-70
2022/01/11 04:45:01;;;;;;;19.23;6.70;;;;;;;1.54;48.26;101236.63;5450054;32;34678;-69
2022/01/11 04:48:03;;;;;;;15.97;6.60;;;;;;;1.24;48.87;101247.50;5418341;32;35290;-66
2022/01/11 04:51:06;;;;;;;17.27;6.27;;;;;;;1.10;49.03;101250.78;5433458;32;34317;-68
2022/01/11 04:54:08;;;;;;;17.30;6.30;;;;;;;1.03;48.62;101254.97;5448286;32;34200;-69
2022/01/11 04:57:10;;;;;;;16.03;5.97;;;;;;;1.43;47.67;101253.78;5434644;32;34876;-68
2022/01/11 05:00:14;;;;;;;15.80;6.03;;;;;;;1.13;47.83;101250.81;5452117;32;34962;-68
2022/01/11 05:03:18;;;;;;;16.83;6.77;;;;;;;0.44;49.97;101261.00;5424737;32;34477;-70
2022/01/11 05:06:21;;;;;;;18.63;6.47;;;;;;;1.07;48.87;101259.34;5438180;32;34043;-69
2022/01/11 05:09:23;;;;;;;13.77;5.63;;;;;;;1.51;47.55;101269.41;5432195;32;34516;-69
2022/01/11 05:12:25;;;;;;;13.87;5.63;;;;;;;1.41;47.39;101270.13;5442528;32;34084;-71
2022/01/11 05:15:28;;;;;;;13.33;5.47;;;;;;;1.43;47.53;101279.69;5437006;32;35473;-70
2022/01/11 05:18:31;;;;;;;14.00;6.23;;;;;;;1.19;47.76;101287.13;5441006;32;34658;-69
2022/01/11 05:21:34;;;;;;;15.67;6.00;;;;;;;1.32;47.69;101294.22;5446868;32;34259;-70
2022/01/11 05:24:36;;;;;;;16.17;6.37;;;;;;;0.90;48.47;101297.97;5443787;32;34508;-68
2022/01/11 05:27:38;;;;;;;14.67;5.77;;;;;;;0.79;48.99;101299.50;5430576;32;34274;-68
2022/01/11 05:30:40;;;;;;;17.83;6.70;;;;;;;1.31;47.89;101303.72;5432504;32;34003;-69
2022/01/11 05:33:42;;;;;;;16.07;6.50;;;;;;;1.07;48.13;101305.97;5442938;32;34628;-69
2022/01/11 05:36:45;;;;;;;22.13;7.17;;;;;;;0.50;50.17;101314.56;5425250;32;34900;-68
2022/01/11 05:39:49;;;;;;;16.17;6.20;;;;;;;0.96;48.83;101318.72;5410188;32;33997;-70
2022/01/11 05:42:51;;;;;;;16.00;6.80;;;;;;;1.17;48.49;101322.50;5438789;32;34567;-69
2022/01/11 05:45:53;;;;;;;17.10;6.50;;;;;;;0.60;49.27;101334.56;5403620;32;34662;-70
2022/01/11 05:48:55;;;;;;;18.47;7.13;;;;;;;1.21;48.72;101334.63;5437601;32;34069;-69
2022/01/11 05:51:57;;;;;;;13.80;6.63;;;;;;;0.93;49.13;101341.13;5432654;32;33786;-69
2022/01/11 05:55:00;;;;;;;18.90;7.50;;;;;;;0.66;49.73;101349.34;5417831;32;34823;-69
2022/01/11 05:58:02;;;;;;;17.10;6.77;;;;;;;0.13;51.07;101351.81;5424511;32;35122;-70
2022/01/11 06:01:06;;;;;;;15.52;6.47;;;;;;;0.13;51.66;101362.16;5430643;32;34713;-71
2022/01/11 06:04:08;;;;;;;72.37;11.10;;;;;;;0.36;51.33;101360.00;5415236;32;34063;-69
2022/01/11 06:07:10;;;;;;;22.63;7.60;;;;;;;0.11;51.67;101358.69;5436585;32;35258;-71
2022/01/11 06:10:14;;;;;;;22.80;6.73;;;;;;;0.63;50.32;101367.38;5452292;32;35195;-69
2022/01/11 06:13:16;;;;;;;20.10;7.65;;;;;;;0.63;50.40;101365.66;5433845;32;34353;-70
2022/01/11 06:16:21;;;;;;;15.50;7.10;;;;;;;0.76;49.76;101364.16;5419454;32;35441;-70
2022/01/11 06:19:23;;;;;;;14.87;6.70;;;;;;;1.04;48.89;101381.88;5439211;32;35131;-69
2022/01/11 06:22:26;;;;;;;15.70;6.90;;;;;;;0.43;50.70;101385.13;5432828;32;32789;-70
2022/01/11 06:25:28;;;;;;;23.07;7.63;;;;;;;0.48;50.74;101386.09;5439023;32;34715;-69
2022/01/11 06:28:31;;;;;;;20.73;7.17;;;;;;;0.80;50.10;101391.81;5405228;32;36683;-71
2022/01/11 06:31:35;;;;;;;21.17;7.43;;;;;;;0.73;50.16;101392.56;5411437;32;34790;-70
2022/01/11 06:34:38;;;;;;;17.70;7.07;;;;;;;0.45;50.53;101411.88;5430276;32;35150;-69
2022/01/11 06:37:40;;;;;;;18.87;7.07;;;;;;;0.86;49.18;101416.94;5399380;32;34884;-71
2022/01/11 06:40:43;;;;;;;19.40;6.57;;;;;;;1.06;48.12;101413.81;5428763;32;35483;-75
2022/01/11 06:43:46;;;;;;;18.15;6.37;;;;;;;0.87;49.17;101427.31;5395048;32;35354;-74
2022/01/11 06:46:48;;;;;;;17.60;6.80;;;;;;;1.33;47.99;101426.31;5411965;32;35721;-67
2022/01/11 06:49:51;;;;;;;15.00;7.03;;;;;;;1.32;48.29;101427.19;5427580;32;34315;-72
2022/01/11 06:52:53;;;;;;;18.03;7.20;;;;;;;1.57;47.27;101441.38;5436776;32;33913;-70
2022/01/11 06:55:56;;;;;;;15.90;6.70;;;;;;;0.91;49.30;101442.06;5441211;32;34951;-70
2022/01/11 06:58:58;;;;;;;24.07;7.20;;;;;;;0.39;50.27;101448.00;5419566;32;34267;-71
2022/01/11 07:02:01;;;;;;;20.77;7.10;;;;;;;0.26;50.42;101457.25;5436950;32;34397;-70
2022/01/11 07:05:05;;;;;;;18.27;8.20;;;;;;;1.05;48.57;101456.09;5430323;32;34023;-70
2022/01/11 07:08:07;;;;;;;16.98;7.40;;;;;;;0.68;50.08;101461.47;5416893;32;34084;-71
2022/01/11 07:11:11;;;;;;;23.20;7.53;;;;;;;0.61;50.09;101459.63;5416441;32;34578;-74
2022/01/11 07:14:13;;;;;;;;;;;;;;;0.53;50.06;101467.25;5438236;32;35580;-72
2022/01/11 07:17:22;;;;;;;19.77;7.00;;;;;;;0.91;49.06;101460.19;5434658;32;35476;-72
2022/01/11 07:20:24;;;;;;;22.50;8.10;;;;;;;1.63;47.19;101451.81;5436817;32;34047;-73
2022/01/11 07:23:27;;;;;;;19.73;8.40;;;;;;;0.76;49.34;101471.13;5433424;32;35325;-69
2022/01/11 07:26:29;;;;;;;18.03;7.17;;;;;;;1.22;49.05;101473.63;5410306;32;35360;-73
2022/01/11 07:29:32;;;;;;;16.97;6.93;;;;;;;1.55;48.28;101471.59;5416682;32;36509;-67
2022/01/11 07:32:35;;;;;;;168.13;22.70;;;;;;;1.93;47.27;101473.81;5423478;32;33824;-69
2022/01/11 07:35:37;;;;;;;22.13;8.27;;;;;;;1.53;48.05;101478.44;5428123;32;34033;-71
2022/01/11 07:38:39;;;;;;;19.57;7.00;;;;;;;1.81;46.70;101479.72;5406425;32;33903;-70
2022/01/11 07:41:42;;;;;;;19.80;7.77;;;;;;;0.72;48.81;101484.84;5427047;32;33944;-73
2022/01/11 07:44:46;;;;;;;19.40;8.27;;;;;;;1.71;47.16;101487.34;5406506;32;34360;-76
2022/01/11 07:47:48;;;;;;;21.87;9.02;;;;;;;1.24;48.22;101487.50;5429239;32;33868;-78
2022/01/11 07:50:51;;;;;;;20.47;8.07;;;;;;;1.04;48.17;101479.38;5426639;32;34907;-70
2022/01/11 07:53:53;;;;;;;68.23;13.03;;;;;;;1.29;47.59;101489.31;5429858;32;33959;-74
2022/01/11 07:56:55;;;;;;;22.03;9.23;;;;;;;0.69;49.97;101499.44;5425710;32;34064;-70
2022/01/11 07:59:58;;;;;;;27.67;8.73;;;;;;;0.74;49.33;101500.41;5431282;32;33883;-71
2022/01/11 08:03:03;;;;;;;21.03;7.97;;;;;;;1.23;48.62;101496.12;5435273;32;34332;-63
2022/01/11 08:06:06;;;;;;;27.10;8.50;;;;;;;1.02;48.67;101502.62;5448095;32;34202;-74
2022/01/11 08:09:08;;;;;;;19.93;7.87;;;;;;;1.82;47.09;101497.03;5434701;32;34598;-72
2022/01/11 08:12:10;;;;;;;27.00;9.40;;;;;;;1.41;47.87;101509.34;5417021;32;34688;-69
2022/01/11 08:15:13;;;;;;;20.43;8.73;;;;;;;1.20;47.71;101511.59;5419100;32;34050;-68
2022/01/11 08:18:15;;;;;;;19.70;7.77;;;;;;;0.80;48.89;101518.63;5420261;32;34665;-67
2022/01/11 08:21:17;;;;;;;19.33;8.27;;;;;;;1.23;46.90;101511.66;5418661;32;35275;-67
2022/01/11 08:24:23;;;;;;;20.63;8.03;;;;;;;1.60;46.41;101511.37;5445736;32;35270;-65
2022/01/11 08:27:26;;;;;;;17.13;7.23;;;;;;;1.26;47.08;101520.31;5432543;32;34593;-69
2022/01/11 08:30:28;;;;;;;19.87;7.63;;;;;;;1.16;46.95;101518.44;5416120;32;35336;-63
2022/01/11 08:33:30;;;;;;;18.20;8.53;;;;;;;1.39;45.73;101521.41;5434882;32;35203;-65
2022/01/11 08:36:32;;;;;;;21.60;7.90;;;;;;;1.26;46.95;101522.03;5433847;32;34711;-72
2022/01/11 08:39:36;;;;;;;21.73;8.27;;;;;;;1.39;46.86;101531.75;5415523;32;34215;-68
2022/01/11 08:42:39;;;;;;;19.65;8.70;;;;;;;1.17;46.53;101540.03;5421671;32;33582;-67
2022/01/11 08:45:42;;;;;;;19.27;7.63;;;;;;;2.08;45.15;101530.22;5412295;32;34938;-68
2022/01/11 08:48:44;;;;;;;20.40;8.20;;;;;;;1.89;45.57;101524.78;5421632;32;34947;-66
2022/01/11 08:51:47;;;;;;;18.40;8.47;;;;;;;1.18;47.24;101531.41;5433843;32;35466;-68
2022/01/11 08:54:49;;;;;;;21.73;8.17;;;;;;;1.16;46.61;101528.81;5432422;32;34860;-73
2022/01/11 08:57:51;;;;;;;22.07;9.27;;;;;;;1.82;45.68;101527.25;5438642;32;33963;-67
2022/01/11 09:00:53;;;;;;;18.30;7.90;;;;;;;1.36;46.77;101531.72;5419907;32;159128;-72
2022/01/11 09:03:56;;;;;;;19.20;8.63;;;;;;;0.73;47.50;101545.25;5403482;32;34007;-69
2022/01/11 09:06:58;;;;;;;19.73;8.40;;;;;;;1.05;47.46;101541.53;5416076;32;34068;-71
2022/01/11 09:10:01;;;;;;;21.50;8.13;;;;;;;0.96;47.54;101559.47;5435595;32;34195;-70
2022/01/11 09:13:03;;;;;;;21.20;9.67;;;;;;;1.13;46.67;101556.34;5428510;32;33785;-74
2022/01/11 09:16:06;;;;;;;20.60;8.70;;;;;;;1.83;45.64;101552.34;5402812;32;33878;-67
2022/01/11 09:19:09;;;;;;;19.40;8.90;;;;;;;1.83;45.39;101548.03;5420329;32;34206;-73
2022/01/11 09:22:12;;;;;;;19.83;7.43;;;;;;;2.70;43.26;101538.81;5418266;32;35107;-69
2022/01/11 09:25:15;;;;;;;19.87;8.43;;;;;;;1.83;44.68;101540.25;5432906;32;34048;-70
2022/01/11 09:28:18;;;;;;;18.67;7.75;;;;;;;2.31;43.22;101539.16;5401235;32;32997;-67
2022/01/11 09:31:20;;;;;;;16.50;6.40;;;;;;;2.05;43.88;101541.41;5437586;32;34070;-73
2022/01/11 09:34:23;;;;;;;18.70;7.20;;;;;;;1.89;43.97;101539.47;5413231;32;34018;-71
2022/01/11 09:37:25;;;;;;;23.73;7.80;;;;;;;1.89;44.01;101536.88;5421659;32;35147;-68
2022/01/11 09:40:27;;;;;;;16.67;6.33;;;;;;;2.20;42.88;101540.78;5430068;32;35126;-66
2022/01/11 09:43:29;;;;;;;21.60;7.43;;;;;;;2.05;43.23;101536.22;5429710;32;34056;-70
2022/01/11 09:46:32;;;;;;;21.13;8.33;;;;;;;3.10;41.41;101528.84;5425572;32;34269;-69
2022/01/11 09:49:35;;;;;;;17.20;7.27;;;;;;;2.63;41.40;101531.78;5422534;32;33640;-65
2022/01/11 09:52:38;;;;;;;17.47;7.43;;;;;;;2.35;42.25;101542.69;5414329;32;34834;-66
2022/01/11 09:55:44;;;;;;;16.50;7.37;;;;;;;3.12;41.36;101523.66;5401898;32;34715;-75
2022/01/11 09:58:47;;;;;;;18.37;8.30;;;;;;;1.92;43.63;101533.44;5417986;32;34375;-73
2022/01/11 10:01:49;;;;;;;19.00;7.80;;;;;;;2.48;43.10;101530.75;5432625;32;34042;-70
2022/01/11 10:04:58;;;;;;;16.20;6.77;;;;;;;2.70;42.59;101523.22;5432542;32;35211;-72
2022/01/11 10:08:00;;;;;;;15.77;6.30;;;;;;;3.44;40.98;101516.13;5430785;32;34219;-70
2022/01/11 10:11:02;;;;;;;13.60;6.23;;;;;;;2.14;43.02;101520.81;5432928;32;34880;-71
2022/01/11 10:14:31;;;;;;;14.63;6.37;;;;;;;2.39;42.94;101518.53;5433100;32;35258;-71
2022/01/11 10:17:40;;;;;;;14.83;5.87;;;;;;;2.90;42.53;101519.97;5409212;32;34172;-72
2022/01/11 10:20:42;;;;;;;17.17;6.50;;;;;;;3.36;40.86;101510.00;5437119;32;34134;-66
2022/01/11 10:23:46;;;;;;;15.90;5.77;;;;;;;3.11;41.34;101508.94;5427446;32;33861;-70
2022/01/11 10:26:48;;;;;;;12.83;5.57;;;;;;;3.04;41.70;101518.37;5427353;32;34594;-67
2022/01/11 10:29:53;;;;;;;17.10;6.17;;;;;;;2.76;42.17;101518.94;5429543;32;34057;-66
2022/01/11 10:32:57;;;;;;;18.93;6.50;;;;;;;2.49;42.97;101512.59;5414777;32;33987;-72
2022/01/11 10:36:00;;;;;;;16.40;6.50;;;;;;;3.68;41.32;101507.66;5419704;32;33972;-72
2022/01/11 10:39:38;;;;;;;15.60;6.37;;;;;;;2.91;42.20;101517.41;5404089;32;34984;-73
2022/01/11 10:42:50;;;;;;;15.23;6.13;;;;;;;2.72;42.58;101518.91;5358686;32;34781;-68
2022/01/11 10:45:54;;;;;;;17.00;6.10;;;;;;;3.01;41.82;101507.94;5431606;32;35035;-70
2022/01/11 10:48:57;;;;;;;13.87;5.47;;;;;;;3.89;40.55;101509.53;5431476;32;33926;-70
2022/01/11 10:52:27;;;;;;;16.25;5.28;;;;;;;2.68;42.39;101509.34;5413159;32;36168;-75
2022/01/11 10:55:33;;;;;;;16.20;6.43;;;;;;;2.93;42.42;101514.81;5432184;32;35847;-77
2022/01/11 10:59:10;;;;;;;13.17;5.23;;;;;;;2.77;42.74;101518.06;5434105;32;34126;-74
2022/01/11 11:02:25;;;;;;;14.83;6.30;;;;;;;2.77;42.60;101523.28;5421065;32;34010;-77
2022/01/11 11:05:36;;;;;;;15.27;5.63;;;;;;;3.26;41.69;101509.06;5405948;32;33682;-78
2022/01/11 11:08:44;;;;;;;11.90;5.20;;;;;;;3.84;40.35;101514.69;5411270;32;35354;-69
2022/01/11 11:12:08;;;;;;;15.20;6.17;;;;;;;3.18;41.65;101521.97;5424442;32;35470;-72
2022/01/11 11:15:11;;;;;;;12.67;5.70;;;;;;;3.57;41.29;101510.19;5430693;32;36194;-73
2022/01/11 11:18:41;;;;;;;12.50;5.00;;;;;;;4.14;40.66;101508.81;5431536;32;35124;-72
2022/01/11 11:21:47;;;;;;;12.98;5.75;;;;;;;4.13;39.55;101511.41;5437981;32;33988;-78
2022/01/11 11:24:53;;;;;;;12.80;5.23;;;;;;;3.97;40.03;101506.09;5415567;32;34685;-75
2022/01/11 11:27:55;;;;;;;13.80;5.90;;;;;;;3.63;40.65;101504.16;5420608;32;35028;-75
2022/01/11 11:30:59;;;;;;;14.10;5.80;;;;;;;3.57;40.83;101507.56;5427724;32;33988;-71
2022/01/11 11:34:07;;;;;;;12.17;5.37;;;;;;;3.83;40.31;101507.75;5420589;32;32826;-77
2022/01/11 11:37:09;;;;;;;15.10;6.10;;;;;;;3.84;40.40;101508.63;5435602;32;34149;-75
2022/01/11 11:40:31;;;;;;;14.67;5.67;;;;;;;4.23;40.04;101507.97;5431153;32;35904;-76
2022/01/11 11:43:33;;;;;;;12.97;5.10;;;;;;;4.26;39.79;101501.06;5418723;32;35192;-75
2022/01/11 11:46:54;;;;;;;15.53;5.60;;;;;;;4.70;38.97;101496.84;5440879;32;35662;-74
2022/01/11 11:50:00;;;;;;;14.07;5.87;;;;;;;4.47;39.23;101500.28;5419730;32;35322;-75
2022/01/11 11:53:19;;;;;;;12.13;5.33;;;;;;;5.31;37.50;101497.81;5421676;32;33894;-75
2022/01/11 11:56:22;;;;;;;14.47;5.80;;;;;;;4.95;38.34;101487.34;5418072;32;34048;-69
2022/01/11 11:59:25;;;;;;;15.50;6.30;;;;;;;5.65;37.32;101485.63;5438470;32;34558;-70
2022/01/11 12:02:41;;;;;;;13.20;5.83;;;;;;;5.33;37.65;101483.03;5437201;32;34182;-69
2022/01/11 12:05:47;;;;;;;13.97;5.50;;;;;;;5.76;37.02;101493.44;5437719;32;35365;-73
2022/01/11 12:09:09;;;;;;;14.93;5.90;;;;;;;5.74;36.83;101494.34;5401972;32;36921;-73
2022/01/11 12:12:16;;;;;;;14.73;5.90;;;;;;;5.08;37.74;101495.19;5429407;32;34060;-70
2022/01/11 12:15:21;;;;;;;14.40;5.83;;;;;;;5.60;37.26;101492.62;5431266;32;34592;-74
2022/01/11 12:18:24;;;;;;;13.27;5.78;;;;;;;5.20;37.81;101496.94;5438840;32;34208;-76
2022/01/11 12:21:29;;;;;;;13.97;5.37;;;;;;;7.56;33.59;101483.78;5417828;32;34156;-86
2022/01/11 12:24:35;;;;;;;15.20;5.83;;;;;;;9.03;30.71;101480.28;5407170;32;35411;-79
2022/01/11 12:28:00;;;;;;;13.03;5.60;;;;;;;7.06;33.66;101490.28;5430903;32;34116;-80
2022/01/11 12:31:26;;;;;;;15.70;5.80;;;;;;;6.91;34.08;101485.19;5421107;32;33474;-73
2022/01/11 12:34:50;;;;;;;12.97;5.47;;;;;;;6.86;33.77;101485.19;5438728;32;34448;-67
2022/01/11 12:38:09;;;;;;;12.73;5.70;;;;;;;6.23;34.92;101505.53;5437494;32;36195;-66
2022/01/11 12:41:35;;;;;;;13.37;5.73;;;;;;;6.85;34.53;101495.66;5424966;32;34013;-69
2022/01/11 12:47:42;;;;;;;13.43;5.30;;;;;;;7.69;32.58;101493.25;5422347;32;34137;-74
2022/01/11 12:51:00;;;;;;;11.17;4.40;;;;;;;5.84;35.65;101503.84;5436262;32;33982;-72
2022/01/11 12:54:21;;;;;;;14.13;5.83;;;;;;;4.73;37.93;101515.97;5431707;32;33131;-69
2022/01/11 12:57:26;;;;;;;13.67;5.63;;;;;;;4.79;38.32;101508.19;5423903;32;34957;-71
2022/01/11 13:00:28;;;;;;;14.47;5.80;;;;;;;4.68;38.57;101514.22;5430598;32;33958;-71
2022/01/11 13:03:30;;;;;;;11.50;5.00;;;;;;;5.93;35.76;101504.75;5433679;32;33972;-75
2022/01/11 13:06:35;;;;;;;13.40;5.30;;;;;;;5.61;36.11;101504.78;5423169;32;34027;-67
2022/01/11 13:09:37;;;;;;;11.27;4.50;;;;;;;5.15;37.35;101511.69;5416565;32;34179;-75
2022/01/11 13:12:48;;;;;;;16.43;5.60;;;;;;;5.53;36.48;101508.25;5425477;32;35542;-72
2022/01/11 13:15:51;;;;;;;12.93;5.67;;;;;;;5.00;37.88;101514.28;5427381;32;34191;-65
2022/01/11 13:18:53;;;;;;;13.50;5.10;;;;;;;6.09;35.65;101502.97;5425919;32;34033;-74
2022/01/11 13:22:12;;;;;;;13.62;5.68;;;;;;;5.38;36.97;101512.59;5432490;32;35295;-74
2022/01/11 13:25:16;;;;;;;13.07;5.60;;;;;;;4.89;37.49;101517.78;5413226;32;34988;-68
2022/01/11 13:28:33;;;;;;;14.10;5.63;;;;;;;4.77;38.28;101522.94;5414014;32;35683;-77
2022/01/11 13:31:36;;;;;;;13.37;5.83;;;;;;;4.98;37.89;101511.69;5421549;32;36370;-77
2022/01/11 13:34:39;;;;;;;13.35;5.30;;;;;;;4.65;38.01;101522.91;5445157;32;35207;-76
2022/01/11 13:37:42;;;;;;;13.18;5.90;;;;;;;4.32;38.79;101523.66;5435370;32;34880;-66
2022/01/11 13:40:46;;;;;;;11.57;5.87;;;;;;;5.06;37.31;101525.59;5437309;32;34116;-67
2022/01/11 13:43:48;;;;;;;12.93;4.97;;;;;;;4.65;37.94;101528.13;5426810;32;34136;-68
2022/01/11 13:46:56;;;;;;;11.83;4.87;;;;;;;4.38;38.70;101526.28;5435465;32;34924;-65
2022/01/11 13:49:59;;;;;;;12.20;5.00;;;;;;;4.72;38.00;101529.88;5440660;32;33707;-71
2022/01/11 13:53:01;;;;;;;12.33;5.67;;;;;;;4.54;38.28;101535.00;5435626;32;34415;-72
2022/01/11 13:56:14;;;;;;;13.07;5.00;;;;;;;4.62;38.56;101528.94;5422580;32;33807;-69
2022/01/11 13:59:26;;;;;;;10.37;4.77;;;;;;;4.50;38.57;101528.91;5425865;32;34058;-63
2022/01/11 14:02:32;;;;;;;13.63;5.00;;;;;;;4.62;38.20;101538.50;5419276;32;35471;-70
2022/01/11 14:05:37;;;;;;;8.07;3.53;;;;;;;5.96;35.86;101519.53;5433674;32;35348;-70
2022/01/11 14:08:43;;;;;;;11.33;4.70;;;;;;;6.35;34.65;101520.28;5432142;32;34097;-70
2022/01/11 14:12:05;;;;;;;17.37;7.43;;;;;;;6.63;33.85;101521.87;5425667;32;35053;-73
2022/01/11 14:15:08;;;;;;;15.40;5.50;;;;;;;6.33;34.72;101522.91;5431719;32;35216;-74
2022/01/11 14:18:11;;;;;;;12.67;5.50;;;;;;;5.92;35.12;101521.25;5435491;32;34383;-76
2022/01/11 14:21:14;;;;;;;18.98;6.00;;;;;;;6.04;35.12;101528.19;5436723;32;35745;-73
2022/01/11 14:24:17;;;;;;;12.13;5.17;;;;;;;5.55;36.30;101538.69;5436909;32;33385;-67